Time;durP1;ratioP1;P1;durP2;ratioP2;P2;SDS_P1;SDS_P2;PMS_P1;PMS_P2;Temp;Humidity;BMP_temperature;BMP_pressure;BME280_temperature;BME280_humidity;BME280_pressure;Samples;Min_cycle;Max_cycle;Signal;HPM_P1;HPM_P2
2022/04/23 00:02:02;;;;;;;12.52;7.38;;;9.10;82.00;;;;;;4991462;28;20046;-81
2022/04/23 00:04:30;;;;;;;11.02;7.57;;;9.10;82.10;;;;;;4981820;28;20031;-81
2022/04/23 00:06:59;;;;;;;11.85;8.35;;;9.00;82.30;;;;;;4992108;28;20106;-80
2022/04/23 00:09:25;;;;;;;11.57;7.60;;;9.00;82.30;;;;;;4993001;28;20035;-80
2022/04/23 00:11:52;;;;;;;11.75;7.78;;;9.00;82.50;;;;;;4981076;28;20154;-80
2022/04/23 00:14:18;;;;;;;10.38;7.53;;;9.00;82.40;;;;;;4998710;28;20038;-80
2022/04/23 00:16:44;;;;;;;11.48;8.05;;;8.90;82.30;;;;;;4977025;28;20027;-80
2022/04/23 00:19:09;;;;;;;13.63;8.10;;;8.90;82.80;;;;;;4995540;28;20026;-80
2022/04/23 00:21:35;;;;;;;11.18;7.75;;;8.90;82.80;;;;;;4980379;28;20022;-80
2022/04/23 00:24:00;;;;;;;12.25;7.75;;;8.80;82.50;;;;;;4978179;28;20445;-80
2022/04/23 00:26:26;;;;;;;10.10;8.07;;;8.80;82.80;;;;;;4989432;28;20029;-80
2022/04/23 00:28:51;;;;;;;10.90;7.35;;;8.80;82.60;;;;;;4977759;28;20034;-80
2022/04/23 00:31:17;;;;;;;13.15;8.00;;;8.80;82.40;;;;;;4980311;28;20097;-80
2022/04/23 00:33:42;;;;;;;13.93;8.00;;;8.80;82.40;;;;;;4978875;28;20018;-80
2022/04/23 00:36:10;;;;;;;13.57;8.18;;;8.80;82.10;;;;;;4978350;28;20445;-80
2022/04/23 00:38:38;;;;;;;11.45;7.65;;;8.60;82.10;;;;;;4977916;28;20022;-80
2022/04/23 00:41:05;;;;;;;11.70;8.05;;;8.60;82.60;;;;;;4977128;28;20050;-80
2022/04/23 00:43:33;;;;;;;13.43;7.13;;;8.50;82.50;;;;;;4994482;28;20018;-80
2022/04/23 00:46:00;;;;;;;10.32;7.53;;;8.40;83.00;;;;;;4978949;28;20030;-80
2022/04/23 00:48:26;;;;;;;10.70;7.55;;;8.40;83.30;;;;;;4978465;28;20030;-80
2022/04/23 00:50:55;;;;;;;12.07;7.30;;;8.30;83.30;;;;;;4977915;28;20472;-79
2022/04/23 00:53:21;;;;;;;11.50;7.90;;;8.30;83.50;;;;;;4978155;28;20027;-79
2022/04/23 00:55:47;;;;;;;10.60;7.57;;;8.30;83.70;;;;;;4996445;28;20062;-79
2022/04/23 00:58:17;;;;;;;10.27;7.15;;;8.20;83.80;;;;;;4994119;28;20032;-79
2022/04/23 01:00:44;;;;;;;12.90;8.00;;;8.10;84.00;;;;;;4993457;28;20109;-80
2022/04/23 01:03:13;;;;;;;10.73;7.47;;;8.10;84.40;;;;;;4978927;28;20061;-80
2022/04/23 01:05:46;;;;;;;10.75;7.65;;;8.00;84.40;;;;;;4996610;28;20041;-79
2022/04/23 01:08:18;;;;;;;12.07;8.00;;;7.90;84.70;;;;;;4978009;28;20116;-79
2022/04/23 01:10:44;;;;;;;12.45;8.25;;;8.00;85.10;;;;;;4980212;28;20026;-80
2022/04/23 01:13:14;;;;;;;12.05;7.53;;;7.80;85.20;;;;;;4997137;28;20050;-80
2022/04/23 01:15:43;;;;;;;13.60;7.88;;;7.80;85.30;;;;;;4986224;28;20497;-80
2022/04/23 01:18:09;;;;;;;12.13;7.60;;;7.70;85.40;;;;;;4991227;28;20109;-79
2022/04/23 01:20:36;;;;;;;11.80;8.05;;;7.60;85.60;;;;;;4992974;28;20065;-79
2022/04/23 01:23:02;;;;;;;10.63;7.47;;;7.60;85.70;;;;;;4975678;28;20361;-79
2022/04/23 01:25:28;;;;;;;12.25;7.53;;;7.50;85.90;;;;;;4979235;28;20034;-79
2022/04/23 01:27:54;;;;;;;13.68;8.18;;;7.40;86.20;;;;;;4996494;28;20114;-81
2022/04/23 01:30:20;;;;;;;14.02;8.07;;;7.40;86.30;;;;;;4994729;28;20030;-80
2022/04/23 01:32:45;;;;;;;10.90;6.95;;;7.40;86.60;;;;;;4977372;28;20023;-80
2022/04/23 01:35:11;;;;;;;10.85;7.65;;;7.40;86.70;;;;;;4973881;28;20618;-81
2022/04/23 01:37:36;;;;;;;13.88;7.50;;;7.30;86.70;;;;;;4975581;28;20026;-80
2022/04/23 01:40:02;;;;;;;13.00;7.10;;;7.30;86.90;;;;;;4995107;28;20451;-80
2022/04/23 01:42:28;;;;;;;11.68;7.28;;;7.30;87.00;;;;;;4978720;28;20026;-80
2022/04/23 01:44:54;;;;;;;11.05;7.25;;;7.30;86.90;;;;;;4982838;28;20100;-80
2022/04/23 01:47:19;;;;;;;13.05;7.07;;;7.20;87.00;;;;;;4995640;28;20026;-80
2022/04/23 01:49:45;;;;;;;10.80;7.20;;;7.20;87.20;;;;;;4996442;28;20049;-80
2022/04/23 01:52:12;;;;;;;12.70;7.38;;;7.10;87.30;;;;;;4976000;28;20512;-80
2022/04/23 01:54:38;;;;;;;12.73;7.47;;;7.00;87.40;;;;;;4975758;28;20038;-80
2022/04/23 01:57:04;;;;;;;10.90;7.38;;;7.00;87.60;;;;;;4978285;28;20385;-80
2022/04/23 01:59:30;;;;;;;11.05;7.30;;;7.00;87.80;;;;;;5001607;28;20050;-80
2022/04/23 02:01:57;;;;;;;10.98;6.97;;;6.90;87.80;;;;;;4984026;28;20485;-80
2022/04/23 02:04:23;;;;;;;11.05;7.18;;;7.00;87.90;;;;;;5002620;28;20152;-80
2022/04/23 02:06:48;;;;;;;13.05;7.57;;;6.90;88.00;;;;;;4982635;28;20485;-80
2022/04/23 02:09:14;;;;;;;8.90;6.70;;;6.90;87.80;;;;;;4984796;28;20544;-80
2022/04/23 02:11:40;;;;;;;12.18;7.32;;;6.80;88.00;;;;;;5001533;28;20049;-80
2022/04/23 02:14:06;;;;;;;10.05;7.63;;;6.80;88.20;;;;;;4985076;28;20092;-80
2022/04/23 02:16:32;;;;;;;12.63;7.22;;;6.80;88.40;;;;;;5002489;28;20450;-80
2022/04/23 02:18:58;;;;;;;11.13;7.70;;;6.80;88.30;;;;;;4985915;28;20030;-80
2022/04/23 02:21:24;;;;;;;12.18;7.53;;;6.70;88.40;;;;;;4983857;28;20114;-80
2022/04/23 02:23:53;;;;;;;10.38;6.70;;;6.80;88.50;;;;;;4983568;28;20473;-80
2022/04/23 02:26:20;;;;;;;9.93;6.63;;;6.70;88.40;;;;;;4984553;28;20034;-80
2022/04/23 02:28:49;;;;;;;10.15;7.32;;;6.70;88.60;;;;;;5002401;28;20019;-80
2022/04/23 02:31:15;;;;;;;10.15;6.78;;;6.60;88.60;;;;;;4986083;28;20048;-79
2022/04/23 02:33:41;;;;;;;9.60;6.88;;;6.50;88.70;;;;;;4985864;28;20133;-80
2022/04/23 02:36:08;;;;;;;13.27;6.80;;;6.50;89.10;;;;;;4984606;28;20181;-80
2022/04/23 02:38:34;;;;;;;10.18;7.10;;;6.50;89.00;;;;;;5001194;28;20030;-80
2022/04/23 02:40:59;;;;;;;10.05;6.80;;;6.50;89.10;;;;;;4984687;28;20030;-80
2022/04/23 02:43:25;;;;;;;10.48;6.97;;;6.50;89.10;;;;;;4983174;28;20486;-80
2022/04/23 02:45:52;;;;;;;11.73;6.57;;;6.40;89.00;;;;;;4985575;28;20034;-80
2022/04/23 02:48:18;;;;;;;12.50;7.68;;;6.40;89.40;;;;;;4984803;28;20027;-80
2022/04/23 02:50:43;;;;;;;10.30;7.32;;;6.40;89.40;;;;;;4983300;28;20037;-80
2022/04/23 02:53:09;;;;;;;10.75;7.00;;;6.30;89.50;;;;;;4983423;28;20433;-81
2022/04/23 02:55:36;;;;;;;12.13;7.03;;;6.20;89.50;;;;;;4984756;28;20052;-81
2022/04/23 02:58:04;;;;;;;11.90;7.32;;;6.30;89.70;;;;;;4984904;28;20030;-81
2022/04/23 03:00:30;;;;;;;11.68;7.70;;;6.20;89.60;;;;;;5002181;28;20114;-80
2022/04/23 03:02:55;;;;;;;13.90;7.18;;;6.20;89.70;;;;;;5002470;28;20078;-80
2022/04/23 03:05:21;;;;;;;12.10;7.65;;;6.10;89.70;;;;;;4984885;28;20026;-80
2022/04/23 03:07:48;;;;;;;10.10;7.28;;;6.20;89.80;;;;;;4984124;28;20173;-80
2022/04/23 03:10:16;;;;;;;13.13;8.40;;;6.10;89.90;;;;;;4979867;28;20033;-81
2022/04/23 03:12:42;;;;;;;15.98;7.82;;;6.10;90.00;;;;;;4991928;28;20038;-81
2022/04/23 03:15:17;;;;;;;11.82;7.93;;;6.10;90.00;;;;;;4982508;28;20034;-81
2022/04/23 03:17:44;;;;;;;11.07;7.70;;;6.00;90.10;;;;;;4997348;28;20022;-80
2022/04/23 03:20:10;;;;;;;12.38;7.53;;;6.00;90.10;;;;;;4997221;28;20034;-81
2022/04/23 03:22:40;;;;;;;13.43;7.95;;;6.00;90.20;;;;;;4979784;28;20058;-81
2022/04/23 03:25:07;;;;;;;13.60;8.23;;;5.90;90.30;;;;;;4999703;28;20034;-81
2022/04/23 03:27:32;;;;;;;13.50;8.20;;;5.90;90.30;;;;;;5000029;28;20094;-81
2022/04/23 03:29:59;;;;;;;16.67;8.63;;;5.90;90.60;;;;;;4980330;28;20061;-81
2022/04/23 03:32:25;;;;;;;11.20;8.30;;;5.90;90.60;;;;;;4980631;28;20037;-81
2022/04/23 03:34:51;;;;;;;12.45;8.60;;;5.80;90.40;;;;;;4999728;28;20470;-82
2022/04/23 03:37:17;;;;;;;12.35;8.52;;;5.80;90.50;;;;;;4997773;28;20080;-81
2022/04/23 03:39:44;;;;;;;15.70;8.90;;;5.70;90.60;;;;;;4981938;28;20030;-81
2022/04/23 03:42:10;;;;;;;12.43;8.10;;;5.70;90.70;;;;;;4982128;28;20513;-81
2022/04/23 03:44:35;;;;;;;13.82;9.25;;;5.70;90.90;;;;;;4998570;28;20034;-81
2022/04/23 03:47:01;;;;;;;11.60;7.90;;;5.80;90.90;;;;;;4996198;28;20033;-81
2022/04/23 03:49:29;;;;;;;13.13;8.00;;;5.70;90.70;;;;;;4978770;28;20548;-81
2022/04/23 03:51:55;;;;;;;14.98;8.80;;;5.60;90.80;;;;;;4983395;28;20362;-81
2022/04/23 03:54:20;;;;;;;14.95;9.77;;;5.70;91.00;;;;;;4984621;28;20038;-81
2022/04/23 03:56:46;;;;;;;13.65;9.35;;;5.60;91.00;;;;;;4981023;28;20521;-81
2022/04/23 03:59:13;;;;;;;12.23;8.60;;;5.50;90.90;;;;;;4978491;28;20081;-81
2022/04/23 04:01:38;;;;;;;12.63;9.18;;;5.50;91.00;;;;;;4980981;28;20134;-81
2022/04/23 04:04:05;;;;;;;15.32;9.38;;;5.50;91.20;;;;;;4981557;28;20064;-81
2022/04/23 04:06:30;;;;;;;17.08;10.10;;;5.60;91.50;;;;;;4998231;28;20374;-81
2022/04/23 04:08:56;;;;;;;16.58;10.93;;;5.50;91.20;;;;;;4980523;28;20028;-82
2022/04/23 04:11:22;;;;;;;18.02;11.02;;;5.40;91.20;;;;;;4999111;28;20566;-81
2022/04/23 04:13:48;;;;;;;13.23;9.60;;;5.40;91.30;;;;;;4980318;28;20050;-81
2022/04/23 04:16:14;;;;;;;14.70;9.65;;;5.30;91.30;;;;;;4998464;28;20033;-81
2022/04/23 04:18:40;;;;;;;13.30;9.68;;;5.30;91.30;;;;;;4980961;28;20110;-81
2022/04/23 04:21:06;;;;;;;14.93;10.35;;;5.30;91.50;;;;;;4994051;28;20026;-81
2022/04/23 04:23:32;;;;;;;14.20;10.18;;;5.40;91.50;;;;;;4980046;28;20556;-81
2022/04/23 04:25:58;;;;;;;16.38;10.73;;;5.40;91.60;;;;;;4981834;28;20027;-82
2022/04/23 04:28:24;;;;;;;18.95;10.50;;;5.40;91.50;;;;;;4981963;28;20117;-81
2022/04/23 04:33:35;;;;;;;15.75;11.15;;;5.40;91.60;;;;;;4997967;28;20044;-81
2022/04/23 04:36:01;;;;;;;19.27;10.85;;;5.50;91.60;;;;;;4980286;28;20023;-82
2022/04/23 04:38:27;;;;;;;16.05;10.63;;;5.40;91.50;;;;;;4981934;28;20030;-82
2022/04/23 04:40:52;;;;;;;19.83;10.48;;;5.40;91.60;;;;;;4999063;28;20023;-82
2022/04/23 04:43:18;;;;;;;17.00;10.90;;;5.40;91.50;;;;;;4980516;28;20798;-81
2022/04/23 04:45:43;;;;;;;17.45;11.43;;;5.40;91.50;;;;;;4979952;28;20026;-81
2022/04/23 04:48:09;;;;;;;17.98;11.88;;;5.40;91.60;;;;;;4981518;28;20109;-81
2022/04/23 04:50:34;;;;;;;20.73;11.43;;;5.50;91.60;;;;;;4980023;28;20065;-81
2022/04/23 04:53:00;;;;;;;16.17;11.52;;;5.50;91.50;;;;;;4998057;28;20395;-81
2022/04/23 04:55:25;;;;;;;19.40;11.18;;;5.60;91.50;;;;;;4981419;28;20054;-82
2022/04/23 04:57:51;;;;;;;22.40;11.90;;;5.60;91.60;;;;;;4980855;28;20110;-82
2022/04/23 05:00:18;;;;;;;14.93;11.60;;;5.60;91.50;;;;;;4979212;28;20022;-82
2022/04/23 05:02:44;;;;;;;16.15;11.00;;;5.70;91.50;;;;;;4995310;28;20046;-82
2022/04/23 05:05:10;;;;;;;16.20;11.48;;;5.70;91.40;;;;;;4979257;28;20042;-82
2022/04/23 05:07:35;;;;;;;17.42;11.23;;;5.80;91.20;;;;;;4976634;28;20038;-82
2022/04/23 05:10:02;;;;;;;19.85;11.52;;;5.90;91.20;;;;;;4997735;28;20141;-81
2022/04/23 05:12:27;;;;;;;18.95;11.57;;;5.90;91.20;;;;;;4996130;28;20111;-82
2022/04/23 05:14:53;;;;;;;17.23;11.48;;;5.90;91.00;;;;;;4989327;28;20046;-82
2022/04/23 05:17:18;;;;;;;15.27;11.38;;;6.00;90.90;;;;;;4978358;28;20026;-81
2022/04/23 05:19:44;;;;;;;18.02;11.20;;;6.00;90.70;;;;;;4980306;28;20037;-81
2022/04/23 05:22:10;;;;;;;17.20;11.25;;;6.10;90.60;;;;;;4976350;28;20030;-82
2022/04/23 05:24:35;;;;;;;16.67;11.05;;;6.10;90.50;;;;;;4979870;28;20030;-82
2022/04/23 05:27:01;;;;;;;15.48;11.15;;;6.10;90.40;;;;;;4997086;28;20026;-82
2022/04/23 05:29:26;;;;;;;16.17;11.20;;;6.10;90.40;;;;;;4996541;28;20494;-82
2022/04/23 05:31:52;;;;;;;17.27;11.85;;;6.20;90.30;;;;;;4994213;28;20046;-82
2022/04/23 05:34:18;;;;;;;18.42;12.40;;;6.30;90.20;;;;;;4996516;28;20037;-81
2022/04/23 05:36:43;;;;;;;16.45;11.63;;;6.40;89.80;;;;;;4976834;28;20492;-82
2022/04/23 05:39:09;;;;;;;18.42;11.88;;;6.50;89.60;;;;;;4979569;28;20097;-82
2022/04/23 05:41:34;;;;;;;19.30;12.05;;;6.60;89.30;;;;;;4996064;28;20038;-82
2022/04/23 05:43:59;;;;;;;15.63;11.38;;;6.70;88.90;;;;;;4980039;28;20026;-82
2022/04/23 05:46:25;;;;;;;17.67;10.75;;;6.70;88.40;;;;;;4995493;28;20083;-82
2022/04/23 05:48:50;;;;;;;19.80;10.77;;;6.80;88.00;;;;;;4968295;28;20023;-82
2022/04/23 05:51:16;;;;;;;23.40;11.52;;;7.00;87.40;;;;;;4994828;28;20050;-81
2022/04/23 05:53:41;;;;;;;15.65;11.55;;;7.10;86.80;;;;;;5000353;28;20033;-82
2022/04/23 05:56:07;;;;;;;16.08;10.82;;;7.20;86.70;;;;;;4991874;28;20038;-81
2022/04/23 05:58:36;;;;;;;17.88;11.23;;;7.30;86.70;;;;;;4995671;28;20050;-81
2022/04/23 06:01:03;;;;;;;13.65;10.52;;;7.40;86.60;;;;;;4995976;28;20050;-81
2022/04/23 06:03:28;;;;;;;14.75;10.68;;;7.50;86.00;;;;;;4994816;28;20023;-81
2022/04/23 06:05:54;;;;;;;16.75;11.13;;;7.60;85.50;;;;;;4987025;28;20038;-81
2022/04/23 06:08:20;;;;;;;15.70;11.35;;;7.80;84.80;;;;;;4995301;28;20121;-81
2022/04/23 06:10:46;;;;;;;12.05;9.80;;;7.80;83.60;;;;;;4996009;28;20401;-81
2022/04/23 06:13:11;;;;;;;14.20;10.57;;;8.00;83.60;;;;;;4979334;28;20034;-81
2022/04/23 06:15:37;;;;;;;14.55;10.32;;;8.10;83.50;;;;;;4990572;28;20045;-81
2022/04/23 06:18:03;;;;;;;14.57;10.30;;;8.10;82.70;;;;;;4996312;28;20081;-82
2022/04/23 06:20:29;;;;;;;14.77;9.90;;;8.30;82.50;;;;;;4996028;28;20018;-81
2022/04/23 06:22:54;;;;;;;14.82;10.38;;;8.40;82.60;;;;;;4990297;28;20050;-81
2022/04/23 06:25:20;;;;;;;15.23;9.48;;;8.60;81.80;;;;;;4979257;28;20058;-81
2022/04/23 06:27:45;;;;;;;15.00;10.05;;;8.70;81.40;;;;;;4997336;28;20038;-82
2022/04/23 06:30:11;;;;;;;13.93;9.77;;;8.90;80.80;;;;;;4992631;28;20037;-81
2022/04/23 06:32:37;;;;;;;13.82;9.65;;;8.90;79.10;;;;;;4978968;28;20058;-82
2022/04/23 06:35:03;;;;;;;12.52;9.80;;;9.10;79.30;;;;;;4978747;28;20034;-82
2022/04/23 06:37:29;;;;;;;12.95;9.88;;;9.20;78.80;;;;;;4977503;28;20041;-82
2022/04/23 06:39:55;;;;;;;11.35;9.45;;;9.40;77.90;;;;;;4994597;28;20382;-82
2022/04/23 06:42:20;;;;;;;13.70;9.68;;;9.50;76.20;;;;;;4979183;28;20023;-81
2022/04/23 06:44:46;;;;;;;13.77;9.07;;;10.00;78.00;;;;;;4996203;28;20073;-82
2022/04/23 06:47:14;;;;;;;14.18;9.65;;;10.00;75.50;;;;;;4978919;28;20054;-82
2022/04/23 06:49:39;;;;;;;12.95;9.20;;;10.20;76.70;;;;;;4994417;28;20042;-82
2022/04/23 06:52:05;;;;;;;12.48;8.52;;;10.40;75.30;;;;;;4978064;28;20054;-83
2022/04/23 06:54:30;;;;;;;12.48;8.52;;;10.50;73.50;;;;;;4979755;28;20113;-82
2022/04/23 06:56:56;;;;;;;11.45;8.48;;;10.50;72.60;;;;;;4975058;28;20474;-82
2022/04/23 06:59:22;;;;;;;10.95;8.07;;;10.60;73.00;;;;;;4982457;28;20081;-83
2022/04/23 07:01:47;;;;;;;12.57;8.40;;;10.70;71.00;;;;;;4981576;28;20441;-83
2022/04/23 07:04:13;;;;;;;10.43;7.95;;;10.80;70.70;;;;;;4982023;28;20045;-83
2022/04/23 07:06:38;;;;;;;11.13;8.13;;;10.90;70.40;;;;;;4981759;28;20050;-82
2022/04/23 07:09:05;;;;;;;11.45;7.85;;;11.10;68.90;;;;;;4998036;28;20038;-81
2022/04/23 07:11:30;;;;;;;10.55;7.18;;;11.30;69.80;;;;;;4997311;28;20470;-82
2022/04/23 07:13:56;;;;;;;12.85;8.00;;;11.40;68.00;;;;;;4981671;28;20042;-81
2022/04/23 07:16:21;;;;;;;9.65;7.07;;;11.60;69.00;;;;;;5000338;28;20053;-81
2022/04/23 07:18:47;;;;;;;10.60;6.80;;;11.60;66.30;;;;;;4999608;28;20076;-81
2022/04/23 07:21:12;;;;;;;8.25;6.47;;;12.00;67.60;;;;;;4980675;28;20023;-81
2022/04/23 07:26:22;;;;;;;8.27;5.70;;;11.90;64.20;;;;;;4999258;28;20169;-82
2022/04/23 07:28:48;;;;;;;9.70;6.57;;;12.20;63.90;;;;;;4994529;28;20058;-82
2022/04/23 07:31:13;;;;;;;7.25;5.53;;;12.30;62.60;;;;;;4980446;28;20038;-81
2022/04/23 07:39:07;;;;;;;7.75;5.40;;;12.80;62.30;;;;;;4988387;28;20036;-82
2022/04/23 07:41:33;;;;;;;7.88;5.00;;;12.90;60.90;;;;;;4982246;28;20030;-82
2022/04/23 07:43:58;;;;;;;7.32;4.97;;;13.10;58.90;;;;;;4999855;28;20082;-82
2022/04/23 07:46:24;;;;;;;7.53;5.18;;;13.10;59.40;;;;;;4981050;28;20034;-82
2022/04/23 07:48:50;;;;;;;7.47;5.10;;;12.60;57.70;;;;;;4965006;28;20061;-82
2022/04/23 07:51:16;;;;;;;7.72;5.00;;;12.70;57.10;;;;;;4977079;28;20035;-82
2022/04/23 07:53:42;;;;;;;8.05;5.10;;;12.90;56.70;;;;;;4978946;28;20054;-81
2022/04/23 07:56:08;;;;;;;8.93;4.45;;;13.10;56.90;;;;;;4974709;28;20034;-82
2022/04/23 07:58:33;;;;;;;6.28;4.22;;;13.40;56.90;;;;;;4982395;28;20030;-82
2022/04/23 08:00:59;;;;;;;5.70;3.63;;;13.60;54.30;;;;;;4981392;28;20185;-82
2022/04/23 08:03:24;;;;;;;8.30;3.97;;;14.10;55.50;;;;;;4996677;28;20034;-82
2022/04/23 08:05:50;;;;;;;7.32;4.07;;;14.20;54.80;;;;;;4981362;28;20044;-82
2022/04/23 08:08:17;;;;;;;7.30;4.03;;;14.50;53.90;;;;;;4997634;28;20048;-81
2022/04/23 08:10:46;;;;;;;5.82;3.60;;;14.00;50.40;;;;;;4999839;28;20032;-82
2022/04/23 08:13:12;;;;;;;6.50;3.90;;;14.20;50.60;;;;;;4981562;28;20094;-82
2022/04/23 08:15:37;;;;;;;6.10;3.63;;;14.20;50.60;;;;;;4980902;28;20073;-82
2022/04/23 08:18:03;;;;;;;8.05;3.72;;;14.00;50.30;;;;;;4979781;28;20509;-82
2022/04/23 08:20:31;;;;;;;6.53;3.85;;;14.30;52.00;;;;;;4978311;28;20034;-83
2022/04/23 08:22:57;;;;;;;7.38;3.70;;;14.40;51.20;;;;;;4986131;28;20022;-82
2022/04/23 08:25:23;;;;;;;4.90;3.42;;;14.20;49.30;;;;;;4999061;28;20037;-82
2022/04/23 08:27:54;;;;;;;5.05;3.22;;;14.40;49.20;;;;;;4979763;28;20086;-81
2022/04/23 08:30:36;;;;;;;6.72;3.60;;;14.50;48.10;;;;;;4998949;28;20032;-82
2022/04/23 08:33:06;;;;;;;4.95;3.38;;;14.60;48.80;;;;;;4980128;28;20518;-82
2022/04/23 08:35:33;;;;;;;5.03;3.40;;;14.60;49.50;;;;;;4981062;28;20037;-82
2022/04/23 08:37:59;;;;;;;5.50;3.13;;;14.80;46.70;;;;;;4980704;28;20462;-81
2022/04/23 08:40:26;;;;;;;6.07;3.63;;;14.70;47.90;;;;;;4981798;28;20049;-82
2022/04/23 08:42:52;;;;;;;5.75;3.53;;;14.70;45.60;;;;;;4975970;28;20094;-82
2022/04/23 08:45:17;;;;;;;4.68;3.20;;;15.00;45.80;;;;;;4995502;28;20064;-82
2022/04/23 08:47:44;;;;;;;5.22;3.40;;;15.00;46.50;;;;;;4997773;28;20026;-82
2022/04/23 08:50:10;;;;;;;5.07;2.95;;;15.00;46.30;;;;;;4980010;28;20030;-82
2022/04/23 08:52:36;;;;;;;4.90;3.00;;;15.00;45.60;;;;;;4994107;28;20038;-82
2022/04/23 08:55:06;;;;;;;3.78;2.65;;;15.10;45.40;;;;;;4986795;28;20118;-82
2022/04/23 08:57:32;;;;;;;4.63;2.95;;;15.50;45.40;;;;;;4980015;28;20061;-82
2022/04/23 09:00:00;;;;;;;3.85;2.80;;;15.70;45.50;;;;;;4994944;28;20026;-82
2022/04/23 09:02:27;;;;;;;7.43;3.47;;;15.30;43.60;;;;;;4975775;28;20460;-82
2022/04/23 09:04:54;;;;;;;4.82;3.05;;;15.10;43.80;;;;;;4998064;28;20080;-82
2022/04/23 09:07:25;;;;;;;4.22;3.00;;;15.30;45.90;;;;;;4976602;28;20027;-81
2022/04/23 09:09:52;;;;;;;5.00;2.60;;;15.60;45.50;;;;;;4990733;28;20472;-82
2022/04/23 09:12:20;;;;;;;5.13;2.95;;;15.50;43.80;;;;;;4979026;28;20034;-82
2022/04/23 09:14:46;;;;;;;4.85;2.72;;;15.70;42.60;;;;;;4981451;28;20113;-82
2022/04/23 09:25:44;;;;;;;3.70;2.42;;;15.90;42.30;;;;;;4996268;28;20049;-81
2022/04/23 09:28:18;;;;;;;4.10;2.80;;;16.10;43.40;;;;;;4991846;28;20414;-82
2022/04/23 09:30:45;;;;;;;6.38;2.60;;;16.30;41.60;;;;;;4985094;28;20036;-83
2022/04/23 09:33:12;;;;;;;4.55;2.80;;;16.50;42.70;;;;;;4979893;28;20030;-82
2022/04/23 09:35:54;;;;;;;5.35;2.50;;;16.50;42.50;;;;;;4979628;28;20030;-82
2022/04/23 09:38:20;;;;;;;5.85;2.92;;;16.50;41.20;;;;;;4979811;28;20026;-82
2022/04/23 09:40:52;;;;;;;5.97;2.70;;;16.40;41.70;;;;;;4980150;28;20045;-82
2022/04/23 09:43:28;;;;;;;5.50;3.42;;;16.10;42.10;;;;;;4997206;28;20085;-81
2022/04/23 09:46:03;;;;;;;5.60;2.50;;;16.90;42.90;;;;;;4979595;28;20030;-82
2022/04/23 09:48:30;;;;;;;4.03;2.72;;;17.10;41.40;;;;;;4978531;28;20026;-82
2022/04/23 09:50:56;;;;;;;4.57;2.90;;;17.00;42.40;;;;;;4979106;28;20113;-82
2022/04/23 09:53:27;;;;;;;4.45;2.70;;;17.60;42.50;;;;;;4994413;28;20030;-82
2022/04/23 09:55:58;;;;;;;3.58;2.25;;;17.70;39.50;;;;;;4996489;28;20090;-82
2022/04/23 09:58:31;;;;;;;3.10;2.30;;;17.60;39.90;;;;;;4980754;28;20053;-82
2022/04/23 10:00:58;;;;;;;4.53;2.72;;;17.20;38.60;;;;;;4979271;28;20401;-82
2022/04/23 10:03:33;;;;;;;4.40;2.90;;;17.00;40.00;;;;;;4978692;28;20030;-82
2022/04/23 10:06:00;;;;;;;3.83;2.67;;;17.20;41.00;;;;;;4979539;28;20493;-82
2022/04/23 10:08:29;;;;;;;4.47;2.55;;;17.60;39.80;;;;;;4978030;28;20042;-82
2022/04/23 10:10:59;;;;;;;6.50;2.90;;;17.50;39.00;;;;;;4996934;28;20030;-81
2022/04/23 10:13:29;;;;;;;3.72;2.45;;;16.80;40.50;;;;;;4963348;28;20117;-81
2022/04/23 10:15:55;;;;;;;5.32;2.92;;;17.00;40.80;;;;;;4974486;28;20034;-80
2022/04/23 10:18:21;;;;;;;4.50;3.08;;;17.60;39.70;;;;;;4969536;28;20033;-80
2022/04/23 10:21:00;;;;;;;5.85;3.00;;;17.40;39.50;;;;;;4970031;28;20022;-80
2022/04/23 10:23:46;;;;;;;3.35;2.55;;;17.80;39.10;;;;;;4994091;28;20504;-80
2022/04/23 10:26:38;;;;;;;3.78;2.78;;;18.00;38.70;;;;;;4968223;28;20034;-80
2022/04/23 10:29:09;;;;;;;3.63;2.80;;;17.70;38.60;;;;;;4973334;28;20038;-81
2022/04/23 10:31:36;;;;;;;3.75;2.45;;;17.40;38.90;;;;;;4995304;28;20026;-81
2022/04/23 10:34:03;;;;;;;3.28;2.58;;;18.20;40.30;;;;;;4979468;28;20034;-81
2022/04/23 10:36:28;;;;;;;4.93;2.40;;;18.50;39.60;;;;;;4974465;28;20498;-81
2022/04/23 10:39:21;;;;;;;5.20;2.40;;;18.50;37.80;;;;;;4979054;28;20054;-81
2022/04/23 10:41:50;;;;;;;5.32;2.92;;;18.60;36.30;;;;;;4979798;28;20023;-81
2022/04/23 10:44:22;;;;;;;4.25;3.13;;;18.30;37.20;;;;;;4995400;28;20468;-81
2022/04/23 10:46:49;;;;;;;5.28;3.53;;;18.30;37.70;;;;;;4978640;28;20088;-81
2022/04/23 10:49:18;;;;;;;5.65;2.70;;;18.40;39.70;;;;;;4979392;28;20547;-80
2022/04/23 10:51:55;;;;;;;3.70;2.47;;;18.50;38.70;;;;;;4993981;28;20517;-81
2022/04/23 10:54:53;;;;;;;3.25;2.53;;;18.80;38.20;;;;;;4977631;28;20100;-81
2022/04/23 10:57:19;;;;;;;4.90;2.67;;;18.40;36.30;;;;;;4996645;28;20383;-81
2022/04/23 10:59:49;;;;;;;3.95;2.67;;;18.90;36.40;;;;;;4977667;28;20037;-81
2022/04/23 11:02:24;;;;;;;3.00;2.25;;;19.20;38.50;;;;;;4993819;28;20038;-81
2022/04/23 11:14:48;;;;;;;3.60;2.25;;;19.30;36.50;;;;;;4994572;28;20080;-81
2022/04/23 11:17:38;;;;;;;3.78;2.30;;;18.70;35.80;;;;;;4967192;28;20034;-81
2022/04/23 11:20:05;;;;;;;4.03;2.50;;;18.20;37.00;;;;;;4976173;28;20371;-81
2022/04/23 11:22:31;;;;;;;3.20;2.20;;;18.70;35.80;;;;;;4980604;28;20513;-81
2022/04/23 11:24:57;;;;;;;3.20;2.10;;;18.50;36.10;;;;;;4995520;28;20033;-81
2022/04/23 11:27:28;;;;;;;4.18;2.38;;;18.30;36.20;;;;;;4978358;28;20084;-81
2022/04/23 11:29:54;;;;;;;4.07;2.53;;;18.20;34.90;;;;;;4976950;28;20030;-81
2022/04/23 11:32:26;;;;;;;4.57;2.20;;;18.30;37.60;;;;;;4994323;28;20041;-81
2022/04/23 11:34:56;;;;;;;4.07;2.13;;;18.50;36.40;;;;;;4995546;28;20033;-81
2022/04/23 11:37:32;;;;;;;4.97;2.65;;;19.10;36.00;;;;;;4976553;28;20658;-81
2022/04/23 11:40:07;;;;;;;3.38;2.45;;;19.10;34.50;;;;;;4978345;28;20105;-81
2022/04/23 11:42:45;;;;;;;4.65;2.65;;;18.80;36.40;;;;;;4988510;28;20034;-81
2022/04/23 11:45:16;;;;;;;4.93;2.53;;;19.10;34.60;;;;;;4978471;28;20513;-81
2022/04/23 11:47:42;;;;;;;3.10;2.28;;;19.30;34.70;;;;;;4972254;28;20106;-81
2022/04/23 11:50:12;;;;;;;5.00;2.20;;;19.30;35.60;;;;;;4977347;28;20042;-81
2022/04/23 11:52:41;;;;;;;3.43;2.20;;;19.50;34.10;;;;;;4973461;28;20048;-81
2022/04/23 11:55:18;;;;;;;3.58;2.13;;;20.30;34.80;;;;;;4995196;28;20556;-81
2022/04/23 11:57:58;;;;;;;4.82;2.72;;;21.10;32.70;;;;;;4996254;28;20026;-81
2022/04/23 12:00:25;;;;;;;4.73;2.73;;;20.80;33.40;;;;;;4976846;28;20493;-81
2022/04/23 12:02:52;;;;;;;6.05;2.13;;;20.50;32.70;;;;;;4986338;28;20281;-81
2022/04/23 12:05:28;;;;;;;3.85;2.53;;;21.10;33.40;;;;;;4994944;28;20034;-81
2022/04/23 12:07:53;;;;;;;3.25;2.20;;;21.30;32.90;;;;;;4975774;28;20037;-81
2022/04/23 12:10:24;;;;;;;4.60;2.50;;;21.10;33.80;;;;;;4994858;28;20105;-81
2022/04/23 12:12:50;;;;;;;3.97;2.35;;;20.80;32.00;;;;;;4977519;28;20029;-81
2022/04/23 12:15:19;;;;;;;3.10;2.10;;;21.00;31.80;;;;;;4993097;28;20035;-81
2022/04/23 12:17:47;;;;;;;2.92;2.22;;;21.50;34.10;;;;;;4974475;28;20037;-81
2022/04/23 12:20:19;;;;;;;4.38;2.60;;;21.00;31.70;;;;;;4978051;28;20548;-81
2022/04/23 12:22:55;;;;;;;3.08;2.38;;;20.70;34.90;;;;;;4974344;28;20081;-81
2022/04/23 12:25:25;;;;;;;3.67;2.47;;;21.50;33.60;;;;;;4980649;28;20482;-81
2022/04/23 12:42:06;;;;;;;5.45;2.47;;;22.00;32.00;;;;;;4990044;28;20126;-82
2022/04/23 12:44:42;;;;;;;5.00;2.25;;;22.30;31.10;;;;;;4995118;28;20819;-82
2022/04/23 12:47:09;;;;;;;2.88;2.20;;;22.00;31.20;;;;;;4976223;28;20030;-81
2022/04/23 12:49:55;;;;;;;3.28;2.35;;;22.60;31.60;;;;;;4977481;28;20026;-81
2022/04/23 12:52:24;;;;;;;3.50;2.30;;;22.90;31.30;;;;;;4980423;28;20117;-81
2022/04/23 12:55:30;;;;;;;3.28;2.40;;;22.90;30.90;;;;;;4976126;28;20078;-82
2022/04/23 12:58:01;;;;;;;3.90;2.50;;;23.10;31.20;;;;;;4977555;28;20028;-81
2022/04/23 13:00:28;;;;;;;4.63;2.22;;;22.80;30.90;;;;;;4992891;28;20030;-82
2022/04/23 13:03:00;;;;;;;5.22;2.55;;;23.00;30.10;;;;;;4976341;28;20050;-82
2022/04/23 13:05:27;;;;;;;3.55;2.40;;;22.20;29.40;;;;;;4975886;28;20026;-82
2022/04/23 13:10:37;;;;;;;5.20;2.33;;;22.70;29.80;;;;;;4990176;28;20390;-81
2022/04/23 13:13:06;;;;;;;6.03;2.55;;;23.50;30.40;;;;;;4976701;28;20445;-81
2022/04/23 13:15:34;;;;;;;3.10;2.20;;;24.10;29.40;;;;;;4994571;28;20458;-82
2022/04/23 13:18:00;;;;;;;7.43;2.90;;;24.30;30.50;;;;;;4992665;28;20145;-82
2022/04/23 13:20:25;;;;;;;5.95;2.30;;;23.10;30.90;;;;;;4974705;28;20557;-82
2022/04/23 13:22:51;;;;;;;3.95;2.33;;;23.50;29.40;;;;;;4974209;28;20026;-81
2022/04/23 13:25:17;;;;;;;4.05;2.60;;;24.10;28.80;;;;;;4995173;28;20018;-81
2022/04/23 13:27:43;;;;;;;3.47;2.50;;;23.20;29.60;;;;;;4978556;28;20030;-82
2022/04/23 13:30:10;;;;;;;3.80;2.40;;;22.80;30.30;;;;;;4976560;28;20026;-82
2022/04/23 13:32:38;;;;;;;4.57;2.30;;;23.10;29.90;;;;;;4992491;28;20441;-82
2022/04/23 13:35:08;;;;;;;5.25;2.60;;;22.50;30.50;;;;;;4975196;28;20042;-82